Arvada, WY (82831)

12:25 AM MST on March 03, 2015 (GMT -0700)
RAWS ECHETA WY US | Change Station
CLOSE
Current Station
Personal Weather Station
Location: Gillette, WY
Elevation: 4396 ft
Nearby Weather Stations
Active Advisory: Winter Storm Warning

Elev 4396 ft 44.47 °N, 105.84 °W | Updated 34 minutes ago

Snow
Snow
22 °F
Feels Like 6 °F
N
24
Wind Variable Wind from North
Gusts 34.0 mph

Today
High -- | Low -- °F
--% Chance of Precip.
Yesterday
High -- | Low -- °F
Precip. -- in
6:38 AM 5:54 PM
Waxing Gibbous, 95% visible
Pressure 29.78 in
Visibility 0.5 miles
Clouds
Windchill 6 °F
Dew Point 20 °F
Humidity 93%
Rainfall 0.00 in
Snow Depth Not available.
UV Not available.
Pollen .40 out of 12
Air Quality Not available.
Flu Activity Not available.
SPECI KGCC 030712Z AUTO 35025G32KT 1/2SM SN FZFG VV009 M07/M09 A2978 RMK AO2 PK WND 36032/0709 P0001 T10671089 TSNO

More Conditions Fewer Conditions

Pressure 29.78 in
Visibility 0.5 miles
Clouds
Windchill 6 °F
Dew Point 20 °F
Humidity 93%
Rainfall 0.00 in
Snow Depth Not available.
UV Not available.
Pollen .40 out of 12
Air Quality Not available.
Flu Activity Not available.
SPECI KGCC 030712Z AUTO 35025G32KT 1/2SM SN FZFG VV009 M07/M09 A2978 RMK AO2 PK WND 36032/0709 P0001 T10671089 TSNO

More Conditions Fewer Conditions

10-Day Weather Forecast

Almanac

Astronomy

Mar. 03, 2015 Rise Set
Actual Time
Civil Twilight
Nautical Twilight
Astronomical Twilight
Moon
Length of Visible Light
Length of Day
Tomorrow will be .
, % of the Moon is Illuminated

Today's Extremes

State Highs State Lows

Community

WunderPhotos

Upload Photos

1,802,073 photos uploaded!

WunderBlogs® & News

Nearby

Air Quality

  Air Quality AQ Index Pollutant
Not available.

Snow Depth

Station Depth Elevation

Earthquake Activity

City Distance Mag. Time & Date
Minimum magnitude displayed is 2.5.

Coastal Water Temperatures

Place Temperature

Nearby Weather Stations

Winter Storm Warning
Statement as of 2:51 PM MST on March 02, 2015

... Winter Storm Warning remains in effect from 6 PM this evening
to noon MST Tuesday...

A Winter Storm Warning for heavy snow and blowing snow remains in
effect from 6 PM this evening to noon MST Tuesday.

* Timing... this evening through noon on Tuesday. The most intense
snowfall is expected overnight.

* Impacts... hazardous driving conditions on area roadways. The cold
and snow will also threaten Young livestock.

* Snow accumulation... 6 to 12 inches in the beartooth and Red
Lodge foothills... with 4 to 8 inches in the foothills of the
big horns.

* Winds... north at 15 to 30 mph.

* Wind chill values... 15 to 25 below zero.

Precautionary/preparedness actions...

Dangerous driving conditions are expected overnight due to limited
visibility and slick or snowpacked roads. Drifting snow may also
impede travel. Please check Road reports or delay travel.